Time;durP1;ratioP1;P1;durP2;ratioP2;P2;SDS_P1;SDS_P2;PMS_P1;PMS_P2;Temp;Humidity;BMP_temperature;BMP_pressure;BME280_temperature;BME280_humidity;BME280_pressure;Samples;Min_cycle;Max_cycle;Signal;HPM_P1;HPM_P2
2022/08/09 00:02:10;;;;;;;;;8.75;8.75;;;;;23.65;40.62;101627.06;5019255;28;45924;-77
2022/08/09 00:04:36;;;;;;;;;9.00;8.75;;;;;23.65;40.49;101641.28;5019218;28;45640;-77
2022/08/09 00:10:24;;;;;;;;;7.25;7.25;;;;;23.54;40.77;101640.78;5016126;28;45689;-77
2022/08/09 00:12:49;;;;;;;;;10.50;9.25;;;;;23.46;40.65;101640.81;5018164;28;46293;-77
2022/08/09 00:15:14;;;;;;;;;7.75;7.50;;;;;23.44;40.65;101632.91;5018722;28;45755;-78
2022/08/09 00:17:40;;;;;;;;;8.75;8.50;;;;;23.42;40.95;101648.31;5018743;28;45734;-76
2022/08/09 00:20:06;;;;;;;;;11.00;10.50;;;;;23.34;40.98;101630.41;5015695;28;45762;-76
2022/08/09 00:22:31;;;;;;;;;7.00;7.00;;;;;23.36;41.38;101632.94;5016316;28;46205;-79
2022/08/09 00:24:56;;;;;;;;;9.25;9.00;;;;;23.29;41.19;101634.59;5016165;28;45610;-78
2022/08/09 00:27:22;;;;;;;;;8.75;8.75;;;;;23.20;41.43;101617.72;5014119;28;45607;-77
2022/08/09 00:29:47;;;;;;;;;8.75;8.00;;;;;23.25;42.14;101631.41;5014015;28;45604;-77
2022/08/09 00:32:13;;;;;;;;;9.00;8.75;;;;;23.19;41.56;101623.22;5014152;28;46438;-78
2022/08/09 00:34:39;;;;;;;;;8.75;8.00;;;;;23.18;41.50;101630.41;4996043;28;46198;-76
2022/08/09 00:40:26;;;;;;;;;8.00;7.00;;;;;23.08;42.13;101613.69;5014240;28;45464;-76
2022/08/09 00:42:52;;;;;;;;;8.00;8.00;;;;;23.08;41.73;101628.88;5014089;28;45577;-78
2022/08/09 00:45:17;;;;;;;;;6.25;6.25;;;;;23.01;42.32;101620.69;5013587;28;45703;-77
2022/08/09 00:47:42;;;;;;;;;7.75;6.50;;;;;22.92;41.88;101606.50;4996311;28;45764;-77
2022/08/09 00:50:09;;;;;;;;;7.50;7.50;;;;;23.00;42.60;101621.69;5013654;28;45861;-77
2022/08/09 00:52:36;;;;;;;;;6.50;6.25;;;;;22.91;42.33;101614.66;5013622;28;45934;-78
2022/08/09 00:55:01;;;;;;;;;7.75;7.25;;;;;22.82;42.36;101608.47;5013646;28;45635;-78
2022/08/09 00:57:28;;;;;;;;;8.00;8.00;;;;;22.86;42.48;101628.53;5013878;28;45629;-78
2022/08/09 00:59:53;;;;;;;;;6.50;6.25;;;;;22.79;43.38;101618.63;5013512;28;45759;-78
2022/08/09 01:02:22;;;;;;;;;5.50;5.00;;;;;22.81;43.14;101625.50;5013553;28;45719;-77
2022/08/09 01:12:02;;;;;;;;;6.75;6.75;;;;;22.67;43.37;101630.63;5014446;28;46036;-78
2022/08/09 01:14:34;;;;;;;;;5.75;4.75;;;;;22.56;43.41;101618.41;5016004;28;49023;-78
2022/08/09 01:17:08;;;;;;;;;7.00;7.00;;;;;22.56;44.42;101621.88;5016044;28;45584;-79
2022/08/09 01:19:47;;;;;;;;;5.00;5.00;;;;;22.53;43.91;101621.38;5017760;28;45547;-78
2022/08/09 01:26:02;;;;;;;;;5.25;5.25;;;;;22.42;44.28;101616.31;5013234;28;45909;-78
2022/08/09 01:28:29;;;;;;;;;7.75;7.75;;;;;22.36;44.96;101616.97;5013417;28;45777;-79
2022/08/09 01:30:57;;;;;;;;;6.00;5.00;;;;;22.31;44.92;101616.63;5013457;28;45535;-78
2022/08/09 01:33:27;;;;;;;;;5.75;5.00;;;;;22.28;44.87;101616.94;5012940;28;45777;-76
2022/08/09 01:36:01;;;;;;;;;6.00;5.00;;;;;22.27;45.38;101624.13;5014591;28;46627;-77
2022/08/09 01:38:30;;;;;;;;;5.25;5.00;;;;;22.21;45.27;101622.09;4999704;28;45957;-78
2022/08/09 01:41:03;;;;;;;;;6.25;6.00;;;;;22.16;45.07;101627.91;5018107;28;45629;-78
2022/08/09 01:43:32;;;;;;;;;7.50;6.50;;;;;22.08;45.58;101605.66;5016546;28;46506;-77
2022/08/09 01:45:58;;;;;;;;;6.25;5.00;;;;;22.08;45.26;101619.84;5016340;28;45992;-78
2022/08/09 01:48:26;;;;;;;;;6.75;5.00;;;;;22.08;45.70;101616.34;5016506;28;45779;-78
2022/08/09 01:50:53;;;;;;;;;5.00;5.00;;;;;22.06;45.95;101616.50;5016547;28;45523;-77
2022/08/09 01:53:21;;;;;;;;;5.75;5.75;;;;;22.03;46.25;101619.47;5016322;28;45760;-77
2022/08/09 01:55:49;;;;;;;;;6.25;5.75;;;;;22.01;46.11;101618.81;5016053;28;46290;-77
2022/08/09 01:58:15;;;;;;;;;5.00;4.00;;;;;21.96;46.06;101606.94;5016391;28;45639;-77
2022/08/09 02:00:42;;;;;;;;;6.00;5.00;;;;;21.96;45.84;101615.78;5016404;28;45722;-78
2022/08/09 02:03:09;;;;;;;;;6.00;6.00;;;;;21.83;45.95;101601.16;5016140;28;46809;-78
2022/08/09 02:05:36;;;;;;;;;5.25;5.25;;;;;21.85;46.46;101613.34;5015996;28;46594;-78
2022/08/09 02:11:27;;;;;;;;;9.00;5.50;;;;;21.81;46.97;101611.16;5014680;28;45705;-78
2022/08/09 02:13:53;;;;;;;;;6.00;6.00;;;;;21.76;46.20;101609.78;4998100;28;46579;-78
2022/08/09 02:16:18;;;;;;;;;7.25;6.00;;;;;21.73;46.83;101609.28;5015854;28;45692;-77
2022/08/09 02:18:44;;;;;;;;;5.50;5.50;;;;;21.66;46.68;101600.22;5016192;28;45620;-77
2022/08/09 02:21:14;;;;;;;;;7.00;7.00;;;;;21.63;47.59;101608.53;5015963;28;45720;-78
2022/08/09 02:23:57;;;;;;;;;6.25;5.75;;;;;21.64;47.21;101616.41;4997646;28;47590;-77
2022/08/09 02:26:26;;;;;;;;;8.50;7.00;;;;;21.57;47.44;101598.50;5015596;28;46638;-77
2022/08/09 02:28:56;;;;;;;;;6.00;6.00;;;;;21.57;47.29;101595.81;5015917;28;45704;-77
2022/08/09 02:31:29;;;;;;;;;7.00;6.00;;;;;21.57;47.95;101609.16;5015986;28;45892;-77
2022/08/09 02:34:00;;;;;;;;;5.75;5.75;;;;;21.51;47.41;101596.44;5015778;28;45675;-77
2022/08/09 02:36:32;;;;;;;;;5.50;5.50;;;;;21.54;47.14;101607.63;5015508;28;45996;-79
2022/08/09 02:39:04;;;;;;;;;5.50;5.50;;;;;21.52;47.91;101608.78;5015607;28;45650;-77
2022/08/09 02:41:44;;;;;;;;;5.25;4.50;;;;;21.50;47.32;101610.75;4997843;28;45586;-77
2022/08/09 02:44:19;;;;;;;;;6.00;5.00;;;;;21.46;47.58;101602.25;5015947;28;46856;-77
2022/08/09 02:46:48;;;;;;;;;6.50;6.50;;;;;21.47;48.17;101609.25;5014907;28;45970;-77
2022/08/09 02:49:16;;;;;;;;;10.00;6.00;;;;;21.45;47.89;101600.56;5015095;28;45565;-77
2022/08/09 02:51:45;;;;;;;;;7.75;6.25;;;;;21.44;48.07;101606.88;5015671;28;45757;-76
2022/08/09 02:54:14;;;;;;;;;8.75;7.75;;;;;21.42;48.49;101594.72;5015414;28;45663;-78
2022/08/09 02:56:44;;;;;;;;;6.50;6.50;;;;;21.38;48.08;101591.50;4997172;28;47344;-77
2022/08/09 02:59:11;;;;;;;;;6.25;6.25;;;;;21.38;48.42;101598.69;5015444;28;45853;-78
2022/08/09 03:01:37;;;;;;;;;5.75;5.50;;;;;21.27;48.33;101581.94;5015242;28;45666;-78
2022/08/09 03:04:06;;;;;;;;;7.00;7.00;;;;;21.32;48.31;101586.81;5015097;28;46748;-78
2022/08/09 03:06:33;;;;;;;;;6.75;6.00;;;;;21.31;48.84;101593.13;5015045;28;45841;-76
2022/08/09 03:09:00;;;;;;;;;5.25;5.00;;;;;21.29;48.46;101603.09;5015257;28;45665;-76
2022/08/09 03:11:27;;;;;;;;;7.50;6.00;;;;;21.25;47.72;101596.41;5014801;28;45985;-79
2022/08/09 03:13:54;;;;;;;;;6.25;5.25;;;;;21.24;48.52;101606.25;5014855;28;46788;-77
2022/08/09 03:16:22;;;;;;;;;8.25;7.00;;;;;21.20;49.07;101599.53;5014892;28;46129;-75
2022/08/09 03:18:49;;;;;;;;;8.00;6.75;;;;;21.18;49.26;101603.34;5015009;28;45579;-77
2022/08/09 03:21:15;;;;;;;;;7.50;6.50;;;;;21.10;48.85;101592.59;5015145;28;45591;-76
2022/08/09 03:27:07;;;;;;;;;9.50;6.25;;;;;21.03;49.23;101602.19;5014433;28;45588;-77
2022/08/09 03:29:35;;;;;;;;;5.50;4.50;;;;;20.99;49.02;101606.16;5014768;28;45693;-78
2022/08/09 03:32:01;;;;;;;;;6.75;6.00;;;;;20.94;49.76;101615.41;5014783;28;45512;-77
2022/08/09 03:34:27;;;;;;;;;7.00;6.50;;;;;20.91;49.62;101612.22;5014472;28;45671;-78
2022/08/09 03:36:53;;;;;;;;;8.50;8.50;;;;;20.83;49.85;101610.31;5014529;28;46370;-78
2022/08/09 03:39:18;;;;;;;;;6.50;6.00;;;;;20.76;49.81;101606.59;5014643;28;45656;-77
2022/08/09 03:41:43;;;;;;;;;8.00;7.00;;;;;20.71;50.15;101600.88;5014883;28;45764;-77
2022/08/09 03:44:09;;;;;;;;;5.75;5.50;;;;;20.67;50.14;101596.84;5014309;28;46625;-77
2022/08/09 03:46:35;;;;;;;;;7.00;6.25;;;;;20.71;49.92;101597.38;5014409;28;46336;-76
2022/08/09 03:49:02;;;;;;;;;8.00;7.00;;;;;20.73;50.00;101598.06;5014444;28;45750;-77
2022/08/09 03:51:29;;;;;;;;;8.00;7.25;;;;;20.69;49.89;101602.84;5014726;28;45675;-77
2022/08/09 03:57:16;;;;;;;;;9.00;6.50;;;;;20.68;50.11;101598.50;5014110;28;45942;-77
2022/08/09 03:59:42;;;;;;;;;7.25;6.00;;;;;20.64;50.51;101594.47;5014257;28;45717;-77
2022/08/09 04:02:08;;;;;;;;;9.00;8.50;;;;;20.65;50.25;101595.31;5014469;28;45567;-77
2022/08/09 04:04:35;;;;;;;;;7.25;7.00;;;;;20.67;49.99;101601.31;4995989;28;47349;-77
2022/08/09 04:07:01;;;;;;;;;7.25;7.25;;;;;20.64;50.07;101599.78;5013969;28;46208;-78
2022/08/09 04:09:27;;;;;;;;;8.00;7.50;;;;;20.60;50.40;101592.25;5014303;28;45715;-77
2022/08/09 04:12:08;;;;;;;;;7.25;6.75;;;;;20.64;50.60;101606.94;5014099;28;45519;-77
2022/08/09 04:14:33;;;;;;;;;9.75;8.00;;;;;20.62;50.51;101609.75;5013943;28;45555;-77
2022/08/09 04:16:59;;;;;;;;;6.75;6.75;;;;;20.59;50.48;101610.06;5014081;28;45754;-77
2022/08/09 04:19:24;;;;;;;;;6.25;5.50;;;;;20.58;51.06;101605.72;5014214;28;45705;-76
2022/08/09 04:21:50;;;;;;;;;6.75;6.00;;;;;20.57;50.89;101609.34;5014240;28;45674;-77
2022/08/09 04:27:40;;;;;;;;;5.50;5.50;;;;;20.53;50.31;101619.47;5013623;28;45790;-77
2022/08/09 04:30:09;;;;;;;;;8.00;8.00;;;;;20.50;50.70;101613.63;5014045;28;45534;-76
2022/08/09 04:32:34;;;;;;;;;6.75;6.25;;;;;20.44;51.09;101608.88;5014022;28;45702;-78
2022/08/09 04:34:59;;;;;;;;;8.25;7.50;;;;;20.46;51.04;101626.38;5013570;28;45709;-79
2022/08/09 04:37:25;;;;;;;;;7.50;7.00;;;;;20.34;51.38;101616.94;5013853;28;45933;-76
2022/08/09 04:39:50;;;;;;;;;8.00;7.25;;;;;20.38;51.15;101628.94;5013925;28;45620;-77
2022/08/09 04:42:16;;;;;;;;;9.00;8.00;;;;;20.37;51.44;101632.59;5013868;28;45805;-77
2022/08/09 04:44:41;;;;;;;;;8.25;7.50;;;;;20.31;51.43;101627.84;5013679;28;45584;-78
2022/08/09 04:47:07;;;;;;;;;8.00;7.00;;;;;20.30;51.62;101639.44;5013649;28;46464;-76
2022/08/09 04:49:36;;;;;;;;;8.00;7.00;;;;;20.25;51.77;101620.41;4995697;28;45773;-78
2022/08/09 04:52:03;;;;;;;;;7.25;6.25;;;;;20.26;51.75;101638.06;5013786;28;45813;-76
2022/08/09 04:58:16;;;;;;;;;8.50;8.00;;;;;20.18;52.28;101629.16;5013383;28;45966;-83
2022/08/09 05:00:42;;;;;;;;;10.00;7.00;;;;;20.16;51.80;101631.09;5013810;28;45638;-81
2022/08/09 05:03:07;;;;;;;;;8.00;7.25;;;;;20.10;52.59;101638.69;5013895;28;45681;-82
2022/08/09 05:05:33;;;;;;;;;8.00;7.75;;;;;20.09;51.98;101631.69;5013612;28;45785;-81
2022/08/09 05:07:58;;;;;;;;;6.75;6.00;;;;;19.98;52.29;101609.72;5013575;28;45689;-80
2022/08/09 05:10:24;;;;;;;;;9.00;8.00;;;;;20.01;52.13;101623.59;5014055;28;45699;-82
2022/08/09 05:12:49;;;;;;;;;7.75;7.75;;;;;20.08;52.89;101635.31;5017220;28;45749;-81
2022/08/09 05:15:15;;;;;;;;;7.75;6.75;;;;;20.05;52.00;101625.00;5016660;28;45708;-80
2022/08/09 05:17:40;;;;;;;;;8.00;8.00;;;;;20.08;51.88;101627.34;5016975;28;46222;-80
2022/08/09 05:20:08;;;;;;;;;6.75;6.25;;;;;20.06;52.39;101624.00;5016859;28;45457;-82
2022/08/09 05:22:33;;;;;;;;;6.00;6.00;;;;;20.13;52.26;101644.72;5017111;28;45638;-81
2022/08/09 05:28:21;;;;;;;;;7.25;7.25;;;;;20.13;51.95;101644.72;5016701;28;45612;-82
2022/08/09 05:30:47;;;;;;;;;9.00;8.25;;;;;20.15;52.38;101642.72;5016743;28;45465;-80
2022/08/09 05:33:12;;;;;;;;;10.00;8.00;;;;;20.10;52.48;101638.69;5016720;28;45766;-80
2022/08/09 05:35:38;;;;;;;;;9.00;8.00;;;;;20.06;52.34;101633.81;5016588;28;46729;-82
2022/08/09 05:38:03;;;;;;;;;7.00;7.00;;;;;20.13;52.51;101639.41;5016587;28;46242;-79
2022/08/09 05:40:29;;;;;;;;;8.50;7.00;;;;;20.14;52.37;101657.84;5016868;28;45471;-81
2022/08/09 05:42:55;;;;;;;;;7.50;7.50;;;;;20.13;52.25;101650.03;5016974;28;45661;-83
2022/08/09 05:45:21;;;;;;;;;6.50;6.50;;;;;20.09;52.59;101647.66;5016477;28;45784;-83
2022/08/09 05:47:46;;;;;;;;;6.75;6.75;;;;;20.06;52.23;101636.47;4998481;28;48192;-81
2022/08/09 05:50:11;;;;;;;;;9.00;7.00;;;;;19.98;52.68;101636.34;5016832;28;45688;-82
2022/08/09 05:52:38;;;;;;;;;7.00;6.50;;;;;20.06;52.62;101647.13;5018328;28;45696;-78
2022/08/09 05:58:25;;;;;;;;;8.75;7.75;;;;;20.11;52.56;101661.66;5021162;28;45852;-79
2022/08/09 06:00:50;;;;;;;;;8.00;7.00;;;;;20.07;53.22;101657.63;5019478;28;45594;-77
2022/08/09 06:03:16;;;;;;;;;6.25;6.00;;;;;20.07;52.60;101656.78;5016976;28;45524;-78
2022/08/09 06:05:41;;;;;;;;;5.00;5.00;;;;;20.06;52.34;101657.75;5016066;28;45831;-76
2022/08/09 06:08:07;;;;;;;;;9.00;8.75;;;;;20.01;53.13;101657.34;5016059;28;46593;-76
2022/08/09 06:10:38;;;;;;;;;8.75;8.00;;;;;20.01;53.18;101668.84;5016011;28;45834;-78
2022/08/09 06:13:11;;;;;;;;;7.00;7.00;;;;;19.95;52.78;101653.44;5016180;28;45575;-77
2022/08/09 06:15:37;;;;;;;;;9.75;8.50;;;;;19.93;53.11;101650.06;5016083;28;45510;-78
2022/08/09 06:18:03;;;;;;;;;8.75;8.00;;;;;19.93;52.95;101652.75;5015805;28;46194;-79
2022/08/09 06:20:29;;;;;;;;;9.00;8.00;;;;;20.05;53.15;101672.88;5016300;28;46086;-76
2022/08/09 06:22:54;;;;;;;;;7.00;7.00;;;;;20.03;52.79;101664.19;5014085;28;45676;-78
2022/08/09 06:28:41;;;;;;;;;10.50;10.50;;;;;20.07;52.80;101673.59;5013995;28;45793;-78
2022/08/09 06:31:07;;;;;;;;;8.75;7.25;;;;;20.15;52.56;101682.66;4996406;28;45928;-77
2022/08/09 06:33:33;;;;;;;;;8.25;7.75;;;;;20.12;52.67;101678.47;5014905;28;45534;-77
2022/08/09 06:35:58;;;;;;;;;10.50;9.50;;;;;20.19;52.12;101689.38;5014420;28;45642;-77
2022/08/09 06:38:24;;;;;;;;;7.00;7.00;;;;;20.21;52.58;101688.22;5014516;28;45550;-78
2022/08/09 06:44:13;;;;;;;;;10.00;10.00;;;;;20.25;52.39;101694.94;5014451;28;45616;-79
2022/08/09 06:46:39;;;;;;;;;8.00;7.50;;;;;20.28;52.36;101696.47;5014407;28;45647;-78
2022/08/09 06:49:04;;;;;;;;;8.25;7.25;;;;;20.30;51.94;101692.69;5014256;28;45558;-77
2022/08/09 06:51:29;;;;;;;;;10.00;8.75;;;;;20.30;52.26;101695.34;5014513;28;45481;-76
2022/08/09 06:53:55;;;;;;;;;9.00;7.50;;;;;20.31;52.34;101685.53;5014338;28;45594;-78
2022/08/09 06:56:20;;;;;;;;;10.25;9.00;;;;;20.32;52.30;101688.09;5014260;28;46732;-78
2022/08/09 06:58:46;;;;;;;;;9.50;8.75;;;;;20.35;52.20;101690.44;5014618;28;46153;-74
2022/08/09 07:01:11;;;;;;;;;8.50;8.25;;;;;20.35;51.99;101689.63;5014886;28;45669;-77
2022/08/09 07:03:37;;;;;;;;;9.00;9.00;;;;;20.39;52.36;101691.84;5014603;28;45686;-78
2022/08/09 07:06:02;;;;;;;;;8.50;7.50;;;;;20.43;51.81;101697.72;5014451;28;45672;-77
2022/08/09 07:08:28;;;;;;;;;8.75;8.00;;;;;20.46;52.22;101686.75;5014432;28;45658;-78
2022/08/09 07:14:29;;;;;;;;;12.50;10.25;;;;;20.55;51.63;101699.22;5012978;28;45777;-79
2022/08/09 07:16:55;;;;;;;;;8.00;7.25;;;;;20.60;51.59;101710.25;5014520;28;46572;-76
2022/08/09 07:19:21;;;;;;;;;9.50;7.50;;;;;20.64;51.48;101702.81;5014315;28;46336;-77
2022/08/09 07:21:46;;;;;;;;;7.25;6.75;;;;;20.62;51.36;101694.16;5014537;28;45787;-77
2022/08/09 07:24:12;;;;;;;;;10.50;8.50;;;;;20.68;51.44;101699.69;5014310;28;45737;-78
2022/08/09 07:26:37;;;;;;;;;8.00;7.75;;;;;20.74;51.27;101707.09;5013973;28;46470;-77
2022/08/09 07:29:04;;;;;;;;;11.75;9.50;;;;;20.72;51.29;101694.94;5014294;28;45699;-76
2022/08/09 07:31:30;;;;;;;;;8.75;8.00;;;;;20.77;51.25;101696.16;5014236;28;45449;-77
2022/08/09 07:33:55;;;;;;;;;10.00;9.00;;;;;20.79;51.21;101691.50;5014592;28;45718;-81
2022/08/09 07:36:20;;;;;;;;;10.50;9.50;;;;;20.86;51.18;101695.28;5014438;28;45654;-79
2022/08/09 07:38:46;;;;;;;;;9.00;8.00;;;;;20.91;50.85;101705.47;4996728;28;46916;-82
2022/08/09 07:44:33;;;;;;;;;9.75;8.00;;;;;20.98;51.04;101703.91;5014541;28;45639;-79
2022/08/09 07:46:58;;;;;;;;;8.00;8.00;;;;;21.02;50.73;101691.94;4996733;28;47215;-81
2022/08/09 07:49:24;;;;;;;;;9.75;9.00;;;;;21.05;50.79;101701.47;5014664;28;45636;-81
2022/08/09 07:51:49;;;;;;;;;7.50;7.25;;;;;21.10;50.33;101699.19;5014841;28;45561;-83
2022/08/09 07:54:15;;;;;;;;;8.75;8.00;;;;;21.14;50.61;101688.13;5014569;28;45558;-82
2022/08/09 07:56:40;;;;;;;;;7.25;6.50;;;;;21.13;50.40;101683.72;5014471;28;46036;-82
2022/08/09 07:59:08;;;;;;;;;6.50;5.00;;;;;21.22;50.26;101692.66;4996528;28;47379;-79
2022/08/09 08:01:34;;;;;;;;;8.00;7.75;;;;;21.22;50.05;101692.66;5015082;28;45673;-79
2022/08/09 08:04:02;;;;;;;;;8.75;8.25;;;;;21.28;50.36;101692.91;5016976;28;45814;-77
2022/08/09 08:06:27;;;;;;;;;8.50;8.50;;;;;21.39;49.91;101699.00;5017532;28;45769;-79
2022/08/09 08:08:52;;;;;;;;;8.00;7.00;;;;;21.48;49.85;101706.09;5018300;28;46347;-78
2022/08/09 08:14:40;;;;;;;;;7.00;7.00;;;;;21.61;49.18;101695.88;5014721;28;45698;-80
2022/08/09 08:17:05;;;;;;;;;8.25;8.00;;;;;21.68;49.10;101699.59;5014604;28;45854;-76
2022/08/09 08:19:31;;;;;;;;;6.75;6.75;;;;;21.72;48.90;101712.47;4996520;28;46040;-80
2022/08/09 08:21:56;;;;;;;;;7.75;7.75;;;;;21.77;48.22;101701.34;5014207;28;45953;-82
2022/08/09 08:24:22;;;;;;;;;11.00;10.00;;;;;21.80;48.66;101701.03;5014227;28;45667;-81
2022/08/09 08:30:10;;;;;;;;;8.00;7.50;;;;;21.93;48.22;101708.63;5013771;28;46032;-80
2022/08/09 08:32:36;;;;;;;;;5.75;5.75;;;;;22.01;48.03;101719.41;5014071;28;45595;-81
2022/08/09 08:35:01;;;;;;;;;7.75;7.00;;;;;22.04;47.75;101708.41;5014198;28;45579;-80
2022/08/09 08:37:28;;;;;;;;;8.25;8.00;;;;;22.10;47.82;101715.78;4996049;28;47316;-81
2022/08/09 08:39:53;;;;;;;;;8.00;7.50;;;;;22.15;47.40;101714.31;4995971;28;47156;-81
2022/08/09 08:42:22;;;;;;;;;8.50;7.25;;;;;22.18;47.55;101705.19;5014005;28;45644;-81
2022/08/09 08:44:56;;;;;;;;;7.00;6.00;;;;;22.20;47.59;101689.81;5013963;28;45638;-81
2022/08/09 08:47:21;;;;;;;;;8.50;8.00;;;;;22.24;46.90;101688.50;4999148;28;47726;-77
2022/08/09 08:49:47;;;;;;;;;7.25;7.00;;;;;22.39;47.18;101710.13;4999197;28;46048;-80
2022/08/09 08:52:17;;;;;;;;;6.00;5.75;;;;;22.43;47.00;101700.81;5017611;28;45667;-79
2022/08/09 08:54:43;;;;;;;;;7.75;7.75;;;;;22.52;46.17;101706.03;4999230;28;45780;-80
2022/08/09 08:57:08;;;;;;;;;8.00;7.25;;;;;22.56;46.12;101699.34;5017247;28;46134;-81
2022/08/09 08:59:34;;;;;;;;;8.25;7.50;;;;;22.59;45.87;101695.53;5017422;28;45694;-82
2022/08/09 09:02:03;;;;;;;;;8.00;7.00;;;;;22.63;46.24;101683.53;5017497;28;45859;-81
2022/08/09 09:04:29;;;;;;;;;5.75;5.50;;;;;22.68;46.08;101694.56;5017376;28;45593;-81
2022/08/09 09:06:59;;;;;;;;;8.25;8.25;;;;;22.73;45.87;101689.59;5017337;28;46526;-81
2022/08/09 09:09:26;;;;;;;;;8.25;7.50;;;;;22.86;45.15;101698.00;5017304;28;46406;-81
2022/08/09 09:15:13;;;;;;;;;8.50;8.00;;;;;22.97;45.04;101703.06;5015922;28;45715;-81
2022/08/09 09:17:38;;;;;;;;;7.50;7.00;;;;;23.05;45.10;101704.91;5016974;28;46639;-80
2022/08/09 09:20:12;;;;;;;;;8.00;7.00;;;;;23.12;44.60;101705.09;5016900;28;45666;-80
2022/08/09 09:22:53;;;;;;;;;6.25;6.00;;;;;23.17;44.58;101706.28;5017078;28;45759;-82
2022/08/09 09:25:42;;;;;;;;;7.00;5.75;;;;;23.17;44.59;101695.56;5017124;28;45513;-81
2022/08/09 09:28:10;;;;;;;;;7.00;6.25;;;;;23.28;43.69;101702.44;4917269;28;45743;-82
2022/08/09 09:30:56;;;;;;;;;7.75;7.25;;;;;23.34;44.14;101694.59;4917463;28;45768;-80
2022/08/09 09:33:34;;;;;;;;;6.00;6.00;;;;;23.42;43.82;101693.78;4917127;28;45679;-82
2022/08/09 09:36:05;;;;;;;;;6.50;6.50;;;;;23.53;43.32;101695.34;4917276;28;45739;-79
2022/08/09 09:38:55;;;;;;;;;8.75;8.25;;;;;23.56;43.09;101689.63;4918001;28;46658;-83
2022/08/09 09:41:27;;;;;;;;;7.00;6.75;;;;;23.66;42.76;101701.00;4917543;28;45997;-81
2022/08/09 09:43:53;;;;;;;;;7.00;6.75;;;;;23.69;42.64;101687.31;4918693;28;45709;-81
2022/08/09 09:46:19;;;;;;;;;8.50;6.50;;;;;23.77;42.68;101687.28;4918172;28;45594;-82
2022/08/09 09:48:58;;;;;;;;;6.50;5.75;;;;;23.83;42.51;101681.25;4902081;28;48461;-80
2022/08/09 09:51:28;;;;;;;;;8.00;7.25;;;;;23.90;41.96;101686.78;4917178;28;47787;-83
2022/08/09 09:54:10;;;;;;;;;8.00;7.25;;;;;23.98;41.83;101679.56;4917989;28;45767;-82
2022/08/09 09:56:39;;;;;;;;;7.75;7.00;;;;;24.05;41.75;101680.56;4917228;28;45620;-83
2022/08/09 09:59:06;;;;;;;;;8.50;7.00;;;;;24.08;42.36;101668.66;4917263;28;45723;-82
2022/08/09 10:01:31;;;;;;;;;8.00;6.50;;;;;24.21;42.44;101677.03;4917076;28;45837;-81
2022/08/09 10:03:58;;;;;;;;;6.50;6.50;;;;;24.28;41.83;101680.72;4918145;28;45678;-83
2022/08/09 10:06:24;;;;;;;;;6.00;6.00;;;;;24.37;41.62;101679.66;5016495;28;45547;-82
2022/08/09 10:08:57;;;;;;;;;7.00;6.00;;;;;24.45;41.87;101678.81;5016151;28;45574;-78
2022/08/09 10:11:26;;;;;;;;;7.00;7.00;;;;;24.49;41.89;101672.09;5016291;28;45818;-80
2022/08/09 10:13:52;;;;;;;;;8.00;7.50;;;;;24.55;41.41;101668.72;5016575;28;45647;-81
2022/08/09 10:16:31;;;;;;;;;7.25;7.00;;;;;24.56;41.10;101665.84;5018581;28;45696;-79
2022/08/09 10:19:00;;;;;;;;;7.75;7.75;;;;;24.67;40.69;101661.94;5025951;28;45585;-79
2022/08/09 10:21:28;;;;;;;;;7.00;6.50;;;;;24.73;40.52;101661.25;5021637;28;45814;-79
2022/08/09 10:23:59;;;;;;;;;7.00;6.50;;;;;24.80;40.36;101656.84;5000434;28;45799;-78
2022/08/09 10:26:25;;;;;;;;;7.50;7.25;;;;;24.89;40.54;101665.72;5016773;28;45582;-77
2022/08/09 10:28:52;;;;;;;;;9.00;9.00;;;;;24.91;40.16;101661.84;5017053;28;45709;-79
2022/08/09 10:31:19;;;;;;;;;7.00;6.50;;;;;25.03;39.59;101662.28;4998164;28;48128;-79
2022/08/09 10:33:45;;;;;;;;;10.25;9.00;;;;;25.01;39.16;101657.09;5016426;28;45681;-80
2022/08/09 10:36:14;;;;;;;;;6.75;6.75;;;;;25.09;39.23;101661.59;5016276;28;45593;-80
2022/08/09 10:38:42;;;;;;;;;7.25;7.25;;;;;25.16;38.94;101661.69;5015897;28;45806;-78
2022/08/09 10:41:08;;;;;;;;;7.00;7.00;;;;;25.27;39.17;101666.63;5015901;28;45976;-80
2022/08/09 10:43:35;;;;;;;;;8.00;7.25;;;;;25.33;38.48;101664.06;5015826;28;45789;-82
2022/08/09 10:46:19;;;;;;;;;9.00;8.50;;;;;25.36;38.50;101658.38;5015959;28;45776;-81
2022/08/09 10:49:17;;;;;;;;;9.00;8.00;;;;;25.46;38.37;101660.81;5015723;28;45717;-79
2022/08/09 10:51:54;;;;;;;;;9.50;9.25;;;;;25.53;38.27;101658.22;5015737;28;45566;-81
2022/08/09 10:54:24;;;;;;;;;8.25;7.00;;;;;25.59;37.98;101655.66;5015478;28;45683;-81
2022/08/09 10:57:08;;;;;;;;;8.00;8.00;;;;;25.66;37.56;101653.94;4997807;28;46027;-83
2022/08/09 10:59:36;;;;;;;;;7.50;7.00;;;;;25.71;37.60;101642.66;5015840;28;46568;-80
2022/08/09 11:02:04;;;;;;;;;7.00;7.00;;;;;25.80;37.49;101650.44;5015690;28;46335;-82
2022/08/09 11:04:30;;;;;;;;;7.00;7.00;;;;;25.79;37.99;101642.59;5016095;28;45700;-83
2022/08/09 11:06:58;;;;;;;;;6.75;6.00;;;;;25.92;37.47;101648.97;5016478;28;45717;-82
2022/08/09 11:09:42;;;;;;;;;8.50;8.00;;;;;26.01;37.65;101643.53;5014467;28;45636;-82
2022/08/09 11:12:10;;;;;;;;;8.00;7.75;;;;;26.06;37.48;101639.28;5015667;28;46145;-80
2022/08/09 11:14:55;;;;;;;;;7.00;7.00;;;;;26.13;37.42;101650.91;5015786;28;45626;-78
2022/08/09 11:17:20;;;;;;;;;10.00;8.00;;;;;26.20;36.85;101646.47;5015944;28;45595;-82
2022/08/09 11:19:49;;;;;;;;;8.75;7.50;;;;;26.26;36.13;101645.78;4997281;28;48471;-83
2022/08/09 11:22:16;;;;;;;;;6.00;6.00;;;;;26.32;36.38;101638.81;5015851;28;45795;-83
2022/08/09 11:25:04;;;;;;;;;8.25;7.75;;;;;26.42;35.33;101643.91;5016174;28;45595;-82
2022/08/09 11:27:30;;;;;;;;;7.75;7.25;;;;;26.45;34.98;101641.66;5016719;28;45776;-83
2022/08/09 11:29:57;;;;;;;;;9.75;8.75;;;;;26.44;34.84;101629.28;5015356;28;46512;-81
2022/08/09 11:33:07;;;;;;;;;7.25;7.25;;;;;26.55;35.35;101636.03;5015558;28;45651;-82
2022/08/09 11:35:42;;;;;;;;;6.00;6.00;;;;;26.62;34.89;101628.84;4991613;28;45712;-83
2022/08/09 11:38:24;;;;;;;;;7.75;6.25;;;;;26.68;34.36;101630.78;5017334;28;45664;-84
2022/08/09 11:43:35;;;;;;;;;8.25;8.25;;;;;26.82;34.49;101638.00;5016066;28;45821;-80
2022/08/09 11:46:02;;;;;;;;;7.75;6.25;;;;;26.87;34.00;101640.97;5016373;28;45547;-81
2022/08/09 11:48:31;;;;;;;;;8.50;7.50;;;;;26.93;34.39;101636.69;5015741;28;45665;-78
2022/08/09 11:50:56;;;;;;;;;9.75;9.00;;;;;27.00;34.61;101629.50;5016034;28;46377;-80
2022/08/09 11:53:30;;;;;;;;;6.75;6.75;;;;;27.03;33.45;101624.59;5015254;28;46389;-81
2022/08/09 11:59:01;;;;;;;;;9.50;8.50;;;;;27.18;33.34;101612.91;4916461;28;45667;-82
2022/08/09 12:01:38;;;;;;;;;7.75;6.75;;;;;27.25;33.97;101609.28;4915305;28;45689;-81
2022/08/09 12:04:06;;;;;;;;;5.00;5.00;;;;;27.23;33.74;101602.41;4915017;28;45954;-80
2022/08/09 12:06:34;;;;;;;;;7.25;6.75;;;;;27.32;33.62;101610.16;4915304;28;45701;-82
2022/08/09 12:09:02;;;;;;;;;7.25;7.25;;;;;27.32;33.60;101594.00;4915077;28;45695;-81
2022/08/09 12:14:49;;;;;;;;;8.00;7.75;;;;;27.52;32.96;101604.97;4914245;28;45934;-79
2022/08/09 12:17:15;;;;;;;;;7.75;7.25;;;;;27.58;32.85;101595.28;4915080;28;46173;-83
2022/08/09 12:19:40;;;;;;;;;10.00;8.75;;;;;27.58;33.61;101589.91;4898986;28;45630;-81
2022/08/09 12:22:06;;;;;;;;;7.00;7.00;;;;;27.64;32.74;101583.72;4914858;28;45740;-83
2022/08/09 12:24:32;;;;;;;;;6.00;6.00;;;;;27.73;32.73;101596.00;4914681;28;45880;-81
2022/08/09 12:30:19;;;;;;;;;8.00;7.50;;;;;27.80;32.07;101596.88;4917296;28;45744;-79
2022/08/09 12:32:44;;;;;;;;;7.25;7.00;;;;;27.84;32.58;101587.38;4903833;28;47466;-79
2022/08/09 12:35:11;;;;;;;;;7.25;7.25;;;;;27.92;32.43;101582.63;4941867;28;45661;-76
2022/08/09 12:37:39;;;;;;;;;6.00;6.00;;;;;27.92;31.71;101581.81;5018125;28;45752;-78
2022/08/09 12:40:10;;;;;;;;;7.75;7.75;;;;;28.01;31.11;101583.31;5015416;28;45666;-77
2022/08/09 12:45:59;;;;;;;;;7.25;7.00;;;;;28.13;31.22;101586.28;5014042;28;45736;-79
2022/08/09 12:48:27;;;;;;;;;6.25;6.00;;;;;28.17;31.03;101587.56;5014435;28;45760;-79
2022/08/09 12:50:54;;;;;;;;;6.00;6.00;;;;;28.20;30.71;101588.00;5015605;28;45606;-80